This is the latest recevied weather packets stored in our database for station/object DM5AO-10. If no packets are shown the sender has not sent any weather packets the latest 10 day(s).
| Time | Temp. | Humidity | Pressure | Rain* | Wind** | Luminosity | Snow |
|---|---|---|---|---|---|---|---|
| 1787502154 | 20.56° C | 50% | 1021.2 hPa | - | - | - | - |
| 1787501253 | 21.11° C | 51% | 1021.2 hPa | - | - | - | - |
| 1787500353 | 21.67° C | 48% | 1020.9 hPa | - | - | - | - |
| 1787499452 | 22.22° C | 43% | 1020.7 hPa | - | - | - | - |
| 1787498551 | 24.44° C | 39% | 1020.5 hPa | - | - | - | - |
| 1787497650 | 23.89° C | 40% | 1020.5 hPa | - | - | - | - |
| 1787496749 | 24.44° C | 39% | 1020.6 hPa | - | - | - | - |
| 1787495848 | 26.67° C | 39% | 1020.9 hPa | - | - | - | - |
| 1787494947 | 23.33° C | 43% | 1020.8 hPa | - | - | - | - |
| 1787494047 | 22.22° C | 46% | 1021 hPa | - | - | - | - |
| 1787493146 | 21.11° C | 47% | 1021.1 hPa | - | - | - | - |
| 1787492245 | 22.22° C | 45% | 1020.9 hPa | - | - | - | - |
| 1787491344 | 21.67° C | 47% | 1021.2 hPa | - | - | - | - |
| 1787490443 | 22.22° C | 46% | 1021.1 hPa | - | - | - | - |
| 1787489543 | 21.11° C | 49% | 1021.1 hPa | - | - | - | - |
| 1787488642 | 21.11° C | 49% | 1021.2 hPa | - | - | - | - |
| 1787487741 | 21.11° C | 50% | 1021 hPa | - | - | - | - |
| 1787486840 | 20.56° C | 50% | 1021.1 hPa | - | - | - | - |
| 1787485938 | 21.11° C | 50% | 1021.1 hPa | - | - | - | - |
| 1787485037 | 20° C | 53% | 1021.2 hPa | - | - | - | - |
| 1787484136 | 20° C | 53% | 1021.2 hPa | - | - | - | - |
| 1787483235 | 19.44° C | 54% | 1021.3 hPa | - | - | - | - |
| 1787482334 | 20° C | 53% | 1021.1 hPa | - | - | - | - |
| 1787481434 | 19.44° C | 56% | 1021.1 hPa | - | - | - | - |
| 1787480533 | 20° C | 57% | 1021.2 hPa | - | - | - | - |
* Rain since midnight (hover to see other rain measurements)
** Current wind speed in m/s (hover to see current wind gust speed)